Ellet, Ohio
Current Conditions -  °F | °C
As of 1:54 PM on Saturday 25 Oct 2014 (Local Time) from KAKR Reporting Station
Broken Clouds Broken Clouds  
Wind Chill: 68°   Ceiling: 3400
Heat Index: 68°   Visibility: 10mi
Dew Point: 52°   Wind: 16mph
Humidity: 56%   Direction: 240°WSW
Pressure: 29.8"   Gusts: NA
Location:  41.0159°N, 81.4403°W
Report Text: KAKR 251754Z AUTO 24014KT 10SM BKN034 20/11 A2980 RMK AO2 SLP089 T02000111 10206 20078 56025
Loading
Personal Weather Stations






























Interactive Weather Map
Tropical Storm Tracking
New forecast layout! Learn more

10-Day Weather Forecast

Advertisements
Track Severe Weather on mobile